Terminal Aerodrome Forecast
Issued by NWS Sioux Falls, SD

Home | Current Version | Previous Version | Text Only | Print | Product List | Glossary Off
Versions: 1 2 3 4 5 6 7 8 9 10 11 12 13 14

000
FTUS43 KFSD 031501 AAB
TAFFSD
TAF AMD
KFSD 031501Z 0315/0412 27008KT 5SM -SN OVC028
     FM031530 34023G34KT P6SM OVC015
      TEMPO 0316/0318 1SM BLSN
     FM032200 32018G26KT P6SM SCT020 BKN150
     FM040100 31009KT P6SM SCT200=

USA.gov is the U.S. government's official web portal to all federal, state and local government web resources and services.